createdAt,value
2017-02-14T00:01:03.416Z,977.87
2017-02-14T00:02:12.930Z,977.9
2017-02-14T00:03:22.501Z,977.89
2017-02-14T00:04:32.094Z,977.92
2017-02-14T00:05:42.427Z,977.92
2017-02-14T00:06:51.214Z,977.9
2017-02-14T00:08:01.545Z,977.9
2017-02-14T00:09:11.505Z,977.88
2017-02-14T00:10:20.695Z,977.83
2017-02-14T00:11:29.901Z,977.84
2017-02-14T00:12:40.265Z,977.8
2017-02-14T00:13:50.154Z,977.81
2017-02-14T00:14:59.319Z,977.84
2017-02-14T00:16:08.443Z,977.91
2017-02-14T00:17:17.581Z,977.9
2017-02-14T00:18:26.694Z,977.82
2017-02-14T00:19:35.893Z,977.81
2017-02-14T00:20:44.699Z,977.83
2017-02-14T00:21:53.911Z,977.8
2017-02-14T00:23:03.479Z,977.76
2017-02-14T00:24:13.431Z,977.76
2017-02-14T00:25:22.243Z,977.75
2017-02-14T00:26:31.820Z,977.72
2017-02-14T00:27:41.740Z,977.75
2017-02-14T00:28:51.694Z,977.78
2017-02-14T00:30:01.275Z,977.73
2017-02-14T00:31:10.846Z,977.66
2017-02-14T00:32:19.592Z,977.67
2017-02-14T00:33:28.815Z,977.67
2017-02-14T00:34:38.368Z,977.67
2017-02-14T00:35:47.544Z,977.7
2017-02-14T00:36:57.106Z,977.65
2017-02-14T00:38:06.655Z,977.67
2017-02-14T00:39:15.779Z,977.64
2017-02-14T00:40:24.968Z,977.6
2017-02-14T00:41:34.515Z,977.65
2017-02-14T00:42:44.442Z,977.61
2017-02-14T00:43:54.411Z,977.62
2017-02-14T00:45:03.584Z,977.58
2017-02-14T00:46:13.128Z,977.6
2017-02-14T00:47:23.093Z,977.58
2017-02-14T00:48:33.446Z,977.57
2017-02-14T00:49:43.048Z,977.61
2017-02-14T00:50:53.054Z,977.58
2017-02-14T00:52:03.008Z,977.59
2017-02-14T00:53:12.181Z,977.62
2017-02-14T00:54:21.795Z,977.63
2017-02-14T00:55:30.986Z,977.66
2017-02-14T00:56:40.157Z,977.66
2017-02-14T00:57:50.098Z,977.65
2017-02-14T00:58:59.296Z,977.65
2017-02-14T01:00:09.635Z,977.6
2017-02-14T01:01:19.978Z,977.56
2017-02-14T01:02:29.924Z,977.54
2017-02-14T01:03:39.060Z,977.61
2017-02-14T01:04:48.219Z,977.62
2017-02-14T01:05:58.117Z,977.6
2017-02-14T01:07:07.660Z,977.59
2017-02-14T01:08:16.386Z,977.64
2017-02-14T01:09:26.337Z,977.61
2017-02-14T01:10:36.252Z,977.63
2017-02-14T01:11:45.819Z,977.65
2017-02-14T01:12:56.181Z,977.68
2017-02-14T01:14:06.518Z,977.69
2017-02-14T01:15:15.315Z,977.68
2017-02-14T01:16:25.645Z,977.68
2017-02-14T01:17:35.223Z,977.79
2017-02-14T01:18:45.606Z,977.75
2017-02-14T01:19:55.567Z,977.74
2017-02-14T01:21:05.461Z,977.76
2017-02-14T01:22:15.041Z,977.74
2017-02-14T01:23:24.986Z,977.67
2017-02-14T01:24:34.106Z,977.67
2017-02-14T01:25:43.662Z,977.65
2017-02-14T01:26:53.218Z,977.63
2017-02-14T01:28:03.210Z,977.63
2017-02-14T01:29:12.786Z,977.59
2017-02-14T01:30:22.740Z,977.6
2017-02-14T01:31:31.544Z,977.58
2017-02-14T01:32:41.102Z,977.55
2017-02-14T01:33:50.287Z,977.59
2017-02-14T01:34:59.465Z,977.57
2017-02-14T01:36:09.454Z,977.63
2017-02-14T01:37:19.820Z,977.61
2017-02-14T01:38:28.625Z,977.66
2017-02-14T01:39:38.535Z,977.7
2017-02-14T01:40:48.436Z,977.68
2017-02-14T01:41:57.933Z,977.77
2017-02-14T01:43:06.730Z,977.79
2017-02-14T01:44:15.520Z,977.77
2017-02-14T01:45:25.091Z,977.77
2017-02-14T01:46:35.034Z,977.74
2017-02-14T01:47:44.605Z,977.74
2017-02-14T01:48:54.120Z,977.73
2017-02-14T01:50:04.405Z,977.74
2017-02-14T01:51:14.364Z,977.75
2017-02-14T01:52:23.580Z,977.72
2017-02-14T01:53:32.768Z,977.66
2017-02-14T01:54:42.323Z,977.62
2017-02-14T01:55:52.196Z,977.61
2017-02-14T01:57:02.502Z,977.58
2017-02-14T01:58:12.835Z,977.56
2017-02-14T01:59:22.786Z,977.53
2017-02-14T02:00:32.356Z,977.59
2017-02-14T02:01:50.799Z,977.66
2017-02-14T02:03:00.742Z,977.64
2017-02-14T02:04:10.643Z,977.62
2017-02-14T02:05:20.581Z,977.62
2017-02-14T02:06:29.782Z,977.56
2017-02-14T02:07:38.975Z,977.56
2017-02-14T02:08:48.360Z,977.47
2017-02-14T02:09:58.323Z,977.35
2017-02-14T02:11:08.086Z,977.3
2017-02-14T02:12:18.813Z,977.29
2017-02-14T02:13:27.988Z,977.26
2017-02-14T02:14:37.177Z,977.3
2017-02-14T02:15:47.127Z,977.28
2017-02-14T02:16:56.727Z,977.31
2017-02-14T02:18:06.057Z,977.33
2017-02-14T02:19:15.243Z,977.28
2017-02-14T02:20:25.798Z,977.31
2017-02-14T02:21:35.016Z,977.27
2017-02-14T02:22:44.611Z,977.28
2017-02-14T02:23:53.795Z,977.21
2017-02-14T02:25:03.757Z,977.13
2017-02-14T02:26:13.625Z,977.12
2017-02-14T02:27:22.389Z,977.13
2017-02-14T02:28:31.942Z,977.05
2017-02-14T02:29:41.542Z,977.01
2017-02-14T02:30:51.492Z,976.99
2017-02-14T02:32:02.079Z,977.03
2017-02-14T02:33:12.443Z,977.01
2017-02-14T02:34:22.425Z,977.05
2017-02-14T02:35:32.373Z,977.06
2017-02-14T02:36:42.326Z,977.04
2017-02-14T02:37:52.272Z,977.01
2017-02-14T02:39:02.611Z,976.95
2017-02-14T02:40:12.551Z,976.93
2017-02-14T02:41:21.289Z,976.83
2017-02-14T02:42:30.866Z,976.79
2017-02-14T02:43:40.803Z,976.79
2017-02-14T02:44:50.372Z,976.74
2017-02-14T02:46:00.326Z,976.75
2017-02-14T02:47:09.896Z,976.71
2017-02-14T02:48:19.856Z,976.67
2017-02-14T02:49:29.031Z,976.68
2017-02-14T02:50:39.000Z,976.66
2017-02-14T02:51:48.193Z,976.67
2017-02-14T02:52:57.763Z,976.59
2017-02-14T02:54:06.938Z,976.58
2017-02-14T02:55:16.150Z,976.57
2017-02-14T02:56:26.101Z,976.62
2017-02-14T02:57:36.056Z,976.64
2017-02-14T02:58:45.957Z,976.66
2017-02-14T02:59:55.460Z,976.66
2017-02-14T03:01:04.976Z,976.64
2017-02-14T03:02:14.563Z,976.61
2017-02-14T03:03:24.877Z,976.62
2017-02-14T03:04:34.395Z,976.63
2017-02-14T03:05:43.193Z,976.65
2017-02-14T03:06:53.141Z,976.67
2017-02-14T03:08:03.468Z,976.73
2017-02-14T03:09:12.967Z,976.72
2017-02-14T03:10:22.175Z,976.76
2017-02-14T03:11:31.361Z,976.73
2017-02-14T03:12:40.150Z,976.75
2017-02-14T03:13:49.720Z,976.75
2017-02-14T03:14:58.896Z,976.68
2017-02-14T03:16:08.424Z,976.68
2017-02-14T03:17:18.369Z,976.66
2017-02-14T03:18:28.294Z,976.67
2017-02-14T03:19:37.455Z,976.67
2017-02-14T03:20:46.629Z,976.65
2017-02-14T03:21:56.183Z,976.68
2017-02-14T03:23:06.929Z,976.68
2017-02-14T03:24:16.867Z,976.69
2017-02-14T03:25:26.447Z,976.63
2017-02-14T03:26:35.233Z,976.59
2017-02-14T03:27:44.779Z,976.59
2017-02-14T03:28:54.286Z,976.51
2017-02-14T03:30:03.797Z,976.51
2017-02-14T03:31:12.990Z,976.55
2017-02-14T03:32:22.492Z,976.55
2017-02-14T03:33:31.673Z,976.6
2017-02-14T03:34:41.572Z,976.55
2017-02-14T03:35:50.737Z,976.51
2017-02-14T03:37:00.281Z,976.52
2017-02-14T03:38:09.460Z,976.59
2017-02-14T03:39:19.357Z,976.6
2017-02-14T03:40:28.555Z,976.59
2017-02-14T03:41:38.517Z,976.64
2017-02-14T03:42:48.095Z,976.62
2017-02-14T03:43:57.661Z,976.63
2017-02-14T03:45:07.369Z,976.62
2017-02-14T03:46:16.949Z,976.58
2017-02-14T03:47:26.894Z,976.62
2017-02-14T03:48:36.849Z,976.65
2017-02-14T03:49:46.002Z,976.68
2017-02-14T03:50:55.129Z,976.78
2017-02-14T03:52:04.317Z,976.71
2017-02-14T03:53:14.262Z,976.73
2017-02-14T03:54:23.457Z,976.71
2017-02-14T03:55:33.387Z,976.68
2017-02-14T03:56:43.276Z,976.74
2017-02-14T03:57:53.247Z,976.77
2017-02-14T03:59:03.585Z,976.79
2017-02-14T04:00:12.373Z,976.77
2017-02-14T04:01:21.930Z,976.83
2017-02-14T04:02:31.497Z,976.78
2017-02-14T04:03:41.456Z,976.81
2017-02-14T04:04:51.778Z,976.75
2017-02-14T04:06:00.564Z,976.73
2017-02-14T04:07:09.901Z,976.73
2017-02-14T04:08:18.720Z,976.76
2017-02-14T04:09:28.680Z,976.73
2017-02-14T04:10:37.482Z,976.84
2017-02-14T04:11:47.023Z,976.84
2017-02-14T04:12:56.157Z,976.86
2017-02-14T04:14:05.724Z,976.87
2017-02-14T04:15:15.290Z,976.89
2017-02-14T04:16:25.234Z,976.91
2017-02-14T04:17:34.408Z,976.9
2017-02-14T04:18:44.311Z,976.88
2017-02-14T04:19:55.046Z,976.95
2017-02-14T04:21:04.615Z,977.01
2017-02-14T04:22:14.566Z,977.01
2017-02-14T04:23:24.523Z,977.02
2017-02-14T04:24:34.496Z,976.99
2017-02-14T04:25:44.052Z,976.94
2017-02-14T04:26:53.624Z,976.96
2017-02-14T04:28:03.198Z,976.95
2017-02-14T04:29:12.768Z,976.98
2017-02-14T04:30:21.882Z,976.95
2017-02-14T04:31:31.774Z,976.9
2017-02-14T04:32:41.328Z,976.89
2017-02-14T04:33:50.873Z,976.92
2017-02-14T04:35:00.042Z,976.92
2017-02-14T04:36:09.598Z,976.94
2017-02-14T04:37:18.423Z,976.91
2017-02-14T04:38:27.600Z,976.92
2017-02-14T04:39:37.919Z,976.91
2017-02-14T04:40:47.428Z,976.85
2017-02-14T04:41:56.552Z,976.86
2017-02-14T04:43:06.517Z,976.84
2017-02-14T04:44:16.461Z,976.82
2017-02-14T04:45:25.649Z,976.83
2017-02-14T04:46:34.836Z,976.94
2017-02-14T04:47:44.407Z,976.83
2017-02-14T04:48:54.351Z,976.92
2017-02-14T04:50:04.712Z,976.9
2017-02-14T04:51:13.871Z,976.88
2017-02-14T04:52:24.635Z,976.87
2017-02-14T04:53:34.575Z,976.88
2017-02-14T04:54:43.707Z,976.9
2017-02-14T04:55:52.889Z,976.89
2017-02-14T04:57:02.822Z,976.89
2017-02-14T04:58:12.776Z,976.9
2017-02-14T04:59:21.934Z,976.86
2017-02-14T05:00:31.445Z,976.82
2017-02-14T05:01:41.389Z,976.82
2017-02-14T05:02:51.714Z,976.95
2017-02-14T05:04:00.837Z,976.89
2017-02-14T05:05:09.987Z,976.93
2017-02-14T05:06:20.654Z,976.94
2017-02-14T05:07:30.225Z,976.94
2017-02-14T05:08:39.343Z,976.86
2017-02-14T05:09:49.289Z,976.88
2017-02-14T05:10:59.625Z,976.84
2017-02-14T05:12:08.732Z,976.83
2017-02-14T05:13:17.933Z,976.81
2017-02-14T05:14:27.707Z,976.81
2017-02-14T05:15:37.267Z,976.8
2017-02-14T05:16:46.831Z,976.88
2017-02-14T05:17:55.998Z,976.86
2017-02-14T05:19:05.959Z,976.82
2017-02-14T05:20:16.314Z,976.83
2017-02-14T05:21:27.061Z,976.88
2017-02-14T05:22:37.023Z,976.92
2017-02-14T05:23:47.369Z,977.02
2017-02-14T05:24:57.686Z,977.01
2017-02-14T05:26:07.684Z,977.02
2017-02-14T05:27:16.850Z,977.06
2017-02-14T05:28:26.750Z,976.99
2017-02-14T05:29:36.299Z,977.02
2017-02-14T05:30:46.189Z,977.03
2017-02-14T05:31:56.138Z,976.99
2017-02-14T05:33:06.795Z,977
2017-02-14T05:34:16.308Z,976.96
2017-02-14T05:35:26.652Z,976.99
2017-02-14T05:36:36.909Z,976.96
2017-02-14T05:37:46.813Z,977.02
2017-02-14T05:38:56.397Z,977.01
2017-02-14T05:40:05.903Z,977
2017-02-14T05:41:16.247Z,977.03
2017-02-14T05:42:26.977Z,977.01
2017-02-14T05:43:36.140Z,976.93
2017-02-14T05:44:46.475Z,977.03
2017-02-14T05:45:56.639Z,976.96
2017-02-14T05:47:06.217Z,976.97
2017-02-14T05:48:15.364Z,976.98
2017-02-14T05:49:25.247Z,977.01
2017-02-14T05:50:34.781Z,977.01
2017-02-14T05:51:44.344Z,977.05
2017-02-14T05:52:53.905Z,977.04
2017-02-14T05:54:03.810Z,977.02
2017-02-14T05:55:12.971Z,977.01
2017-02-14T05:56:23.308Z,977.02
2017-02-14T05:57:32.859Z,977.02
2017-02-14T05:58:41.662Z,977
2017-02-14T05:59:50.849Z,977
2017-02-14T06:00:59.625Z,977.02
2017-02-14T06:02:08.746Z,977.11
2017-02-14T06:03:17.874Z,977.01
2017-02-14T06:04:27.418Z,977.06
2017-02-14T06:05:36.935Z,977.11
2017-02-14T06:06:46.395Z,977.08
2017-02-14T06:07:56.003Z,977.12
2017-02-14T06:09:05.568Z,977.1
2017-02-14T06:10:15.073Z,977.13
2017-02-14T06:11:25.381Z,977.13
2017-02-14T06:12:34.477Z,977.17
2017-02-14T06:13:43.217Z,977.13
2017-02-14T06:14:53.174Z,977.22
2017-02-14T06:16:02.668Z,977.22
2017-02-14T06:17:12.605Z,977.15
2017-02-14T06:18:22.110Z,977.1
2017-02-14T06:19:31.237Z,977.17
2017-02-14T06:20:40.425Z,977.15
2017-02-14T06:21:49.222Z,977.15
2017-02-14T06:22:59.526Z,977.24
2017-02-14T06:24:09.480Z,977.16
2017-02-14T06:25:19.415Z,977.26
2017-02-14T06:26:28.558Z,977.25
2017-02-14T06:27:38.112Z,977.27
2017-02-14T06:28:47.985Z,977.32
2017-02-14T06:29:57.148Z,977.27
2017-02-14T06:31:06.720Z,977.31
2017-02-14T06:32:16.669Z,977.37
2017-02-14T06:33:25.829Z,977.39
2017-02-14T06:34:35.716Z,977.41
2017-02-14T06:35:45.685Z,977.38
2017-02-14T06:36:55.624Z,977.43
2017-02-14T06:38:05.185Z,977.45
2017-02-14T06:39:14.358Z,977.44
2017-02-14T06:40:23.906Z,977.47
2017-02-14T06:41:33.502Z,977.54
2017-02-14T06:42:42.677Z,977.57
2017-02-14T06:43:51.836Z,977.57
2017-02-14T06:45:01.002Z,977.57
2017-02-14T06:46:11.538Z,977.51
2017-02-14T06:47:21.118Z,977.58
2017-02-14T06:48:30.683Z,977.61
2017-02-14T06:49:39.866Z,977.61
2017-02-14T06:50:49.411Z,977.64
2017-02-14T06:51:58.975Z,977.66
2017-02-14T06:53:08.156Z,977.67
2017-02-14T06:54:17.371Z,977.74
2017-02-14T06:55:27.318Z,977.76
2017-02-14T06:56:37.465Z,977.78
2017-02-14T06:57:47.052Z,977.79
2017-02-14T06:58:55.887Z,977.88
2017-02-14T07:00:05.068Z,977.92
2017-02-14T07:01:14.605Z,977.83
2017-02-14T07:02:24.329Z,977.9
2017-02-14T07:03:34.239Z,977.92
2017-02-14T07:04:44.580Z,977.92
2017-02-14T07:05:53.787Z,977.91
2017-02-14T07:07:03.730Z,977.92
2017-02-14T07:08:12.890Z,977.95
2017-02-14T07:09:23.235Z,977.94
2017-02-14T07:10:33.205Z,977.92
2017-02-14T07:11:43.499Z,977.96
2017-02-14T07:12:53.031Z,978.01
2017-02-14T07:14:02.579Z,978.02
2017-02-14T07:15:12.144Z,978.01
2017-02-14T07:16:21.671Z,977.96
2017-02-14T07:17:31.302Z,978
2017-02-14T07:18:40.483Z,977.97
2017-02-14T07:19:50.416Z,978
2017-02-14T07:20:59.578Z,977.99
2017-02-14T07:22:09.348Z,978.03
2017-02-14T07:23:18.523Z,977.99
2017-02-14T07:24:27.693Z,977.97
2017-02-14T07:25:37.637Z,978.03
2017-02-14T07:26:47.960Z,978.03
2017-02-14T07:27:57.931Z,978.04
2017-02-14T07:29:07.870Z,978.07
2017-02-14T07:30:17.047Z,978.1
2017-02-14T07:31:26.230Z,978.08
2017-02-14T07:32:36.398Z,978.09
2017-02-14T07:33:45.568Z,978.09
2017-02-14T07:34:55.520Z,978.11
2017-02-14T07:36:05.085Z,978.14
2017-02-14T07:37:14.093Z,978.17
2017-02-14T07:38:23.668Z,978.17
2017-02-14T07:39:34.009Z,978.2
2017-02-14T07:40:43.565Z,978.21
2017-02-14T07:41:53.532Z,978.23
2017-02-14T07:43:03.090Z,978.28
2017-02-14T07:44:12.651Z,978.31
2017-02-14T07:45:21.452Z,978.3
2017-02-14T07:46:30.616Z,978.34
2017-02-14T07:47:39.733Z,978.33
2017-02-14T07:48:49.284Z,978.28
2017-02-14T07:49:58.846Z,978.31
2017-02-14T07:51:07.968Z,978.33
2017-02-14T07:52:17.550Z,978.34
2017-02-14T07:53:26.749Z,978.32
2017-02-14T07:54:37.085Z,978.35
2017-02-14T07:55:47.021Z,978.39
2017-02-14T07:56:57.662Z,978.37
2017-02-14T07:58:06.441Z,978.41
2017-02-14T07:59:15.610Z,978.41
2017-02-14T08:00:25.176Z,978.42
2017-02-14T08:01:34.679Z,978.5
2017-02-14T08:02:43.844Z,978.49
2017-02-14T08:03:53.038Z,978.5
2017-02-14T08:05:02.917Z,978.47
2017-02-14T08:06:12.084Z,978.48
2017-02-14T08:07:21.274Z,978.5
2017-02-14T08:08:30.832Z,978.47
2017-02-14T08:09:40.409Z,978.5
2017-02-14T08:10:49.593Z,978.52
2017-02-14T08:11:58.769Z,978.56
2017-02-14T08:13:08.712Z,978.56
2017-02-14T08:14:18.479Z,978.65
2017-02-14T08:15:28.431Z,978.56
2017-02-14T08:16:37.663Z,978.63
2017-02-14T08:17:47.618Z,978.63
2017-02-14T08:18:57.175Z,978.65
2017-02-14T08:20:06.340Z,978.64
2017-02-14T08:21:15.531Z,978.65
2017-02-14T08:22:25.089Z,978.62
2017-02-14T08:23:34.646Z,978.65
2017-02-14T08:24:43.836Z,978.63
2017-02-14T08:25:52.812Z,978.67
2017-02-14T08:27:03.162Z,978.71
2017-02-14T08:28:12.907Z,978.74
2017-02-14T08:29:22.851Z,978.76
2017-02-14T08:30:32.794Z,978.72
2017-02-14T08:31:41.998Z,978.69
2017-02-14T08:32:52.704Z,978.71
2017-02-14T08:34:02.582Z,978.75
2017-02-14T08:35:12.078Z,978.72
2017-02-14T08:36:21.276Z,978.77
2017-02-14T08:37:31.249Z,978.76
2017-02-14T08:38:40.037Z,978.78
2017-02-14T08:39:49.933Z,978.78
2017-02-14T08:40:59.504Z,978.78
2017-02-14T08:42:09.056Z,978.83
2017-02-14T08:43:18.558Z,978.89
2017-02-14T08:44:28.493Z,978.91
2017-02-14T08:45:38.430Z,978.96
2017-02-14T08:46:47.224Z,979
2017-02-14T08:47:57.518Z,979.04
2017-02-14T08:49:07.091Z,979.1
2017-02-14T08:50:16.696Z,979.14
2017-02-14T08:51:26.326Z,979.11
2017-02-14T08:52:35.871Z,979.15
2017-02-14T08:53:45.449Z,979.18
2017-02-14T08:54:55.773Z,979.21
2017-02-14T08:56:05.728Z,979.19
2017-02-14T08:57:14.926Z,979.24
2017-02-14T08:58:24.095Z,979.28
2017-02-14T08:59:34.401Z,979.33
2017-02-14T09:00:44.751Z,979.35
2017-02-14T09:01:54.687Z,979.38
2017-02-14T09:03:04.281Z,979.42
2017-02-14T09:04:13.465Z,979.38
2017-02-14T09:05:22.636Z,979.38
2017-02-14T09:06:32.202Z,979.41
2017-02-14T09:07:41.761Z,979.47
2017-02-14T09:08:51.658Z,979.44
2017-02-14T09:10:01.235Z,979.48
2017-02-14T09:11:11.596Z,979.51
2017-02-14T09:12:21.944Z,979.51
2017-02-14T09:13:32.289Z,979.48
2017-02-14T09:14:41.478Z,979.54
2017-02-14T09:15:51.031Z,979.56
2017-02-14T09:17:01.526Z,979.58
2017-02-14T09:18:11.876Z,979.56
2017-02-14T09:19:21.826Z,979.47
2017-02-14T09:23:31.453Z,979.48
2017-02-14T09:31:10.635Z,979.69
2017-02-14T09:32:20.170Z,979.75
2017-02-14T09:33:29.727Z,979.73
2017-02-14T09:34:39.607Z,979.77
2017-02-14T09:35:48.730Z,979.76
2017-02-14T09:36:58.704Z,979.79
2017-02-14T09:38:09.076Z,979.79
2017-02-14T09:39:18.212Z,979.8
2017-02-14T09:40:28.153Z,979.8
2017-02-14T09:41:37.731Z,979.81
2017-02-14T09:42:47.341Z,979.85
2017-02-14T09:43:56.545Z,979.85
2017-02-14T09:45:06.890Z,979.9
2017-02-14T09:46:16.444Z,979.86
2017-02-14T09:47:26.349Z,979.89
2017-02-14T09:48:36.703Z,979.85
2017-02-14T09:49:46.667Z,979.9
2017-02-14T09:50:57.027Z,979.9
2017-02-14T09:52:06.203Z,979.89
2017-02-14T09:53:15.002Z,979.97
2017-02-14T09:54:25.367Z,979.9
2017-02-14T09:55:35.309Z,980
2017-02-14T09:56:44.525Z,979.99
2017-02-14T09:57:53.351Z,979.96
2017-02-14T09:59:03.335Z,979.94
2017-02-14T10:00:13.694Z,979.96
2017-02-14T10:01:23.278Z,980.01
2017-02-14T10:02:33.259Z,980
2017-02-14T10:03:43.213Z,980.02
2017-02-14T10:04:53.495Z,980.07
2017-02-14T10:06:04.235Z,980.06
2017-02-14T10:07:13.738Z,980.04
2017-02-14T10:08:23.681Z,980.04
2017-02-14T10:09:33.969Z,979.99
2017-02-14T10:10:44.247Z,980.01
2017-02-14T10:11:53.775Z,980.03
2017-02-14T10:13:04.501Z,980.08
2017-02-14T10:14:15.080Z,980.09
2017-02-14T10:15:25.415Z,980.11
2017-02-14T10:16:34.716Z,980.09
2017-02-14T10:17:44.315Z,980.14
2017-02-14T10:18:55.118Z,980.17
2017-02-14T10:20:05.440Z,980.17
2017-02-14T10:21:14.240Z,980.21
2017-02-14T10:22:24.670Z,980.16
2017-02-14T10:23:34.577Z,980.15
2017-02-14T10:24:44.176Z,980.16
2017-02-14T10:25:54.959Z,980.18
2017-02-14T10:27:04.474Z,980.19
2017-02-14T10:28:14.032Z,980.17
2017-02-14T10:29:23.613Z,980.18
2017-02-14T10:30:33.168Z,980.21
2017-02-14T10:31:42.685Z,980.23
2017-02-14T10:32:52.309Z,980.2
2017-02-14T10:34:01.475Z,980.21
2017-02-14T10:35:11.382Z,980.21
2017-02-14T10:36:20.952Z,980.24
2017-02-14T10:37:30.924Z,980.25
2017-02-14T10:38:40.869Z,980.25
2017-02-14T10:39:50.777Z,980.27
2017-02-14T10:41:00.298Z,980.2
2017-02-14T10:42:10.677Z,980.24
2017-02-14T10:43:20.269Z,980.24
2017-02-14T10:44:29.799Z,980.29
2017-02-14T10:45:38.929Z,980.32
2017-02-14T10:46:48.147Z,980.36
2017-02-14T10:47:57.739Z,980.3
2017-02-14T10:49:07.690Z,980.32
2017-02-14T10:50:17.211Z,980.34
2017-02-14T10:51:26.409Z,980.34
2017-02-14T10:52:35.984Z,980.29
2017-02-14T10:53:45.190Z,980.31
2017-02-14T10:54:54.749Z,980.33
2017-02-14T10:56:05.487Z,980.3
2017-02-14T10:57:15.447Z,980.31
2017-02-14T10:58:24.244Z,980.3
2017-02-14T10:59:34.233Z,980.31
2017-02-14T11:00:44.584Z,980.29
2017-02-14T11:01:54.912Z,980.32
2017-02-14T11:03:05.426Z,980.3
2017-02-14T11:04:16.171Z,980.29
2017-02-14T11:05:25.739Z,980.29
2017-02-14T11:06:35.643Z,980.3
2017-02-14T11:07:46.002Z,980.31
2017-02-14T11:08:56.666Z,980.26
2017-02-14T11:10:06.242Z,980.35
2017-02-14T11:11:15.798Z,980.37
2017-02-14T11:12:26.068Z,980.34
2017-02-14T11:13:35.622Z,980.29
2017-02-14T11:14:45.952Z,980.3
2017-02-14T11:15:55.519Z,980.3
2017-02-14T11:17:05.045Z,980.29
2017-02-14T11:18:14.227Z,980.33
2017-02-14T11:19:23.836Z,980.27
2017-02-14T11:20:33.814Z,980.33
2017-02-14T11:21:44.193Z,980.36
2017-02-14T11:22:54.132Z,980.3
2017-02-14T11:24:03.270Z,980.29
2017-02-14T11:25:12.864Z,980.3
2017-02-14T11:26:22.826Z,980.33
2017-02-14T11:27:32.391Z,980.24
2017-02-14T11:28:41.573Z,980.26
2017-02-14T11:29:50.522Z,980.25
2017-02-14T11:31:00.107Z,980.25
2017-02-14T11:32:09.343Z,980.27
2017-02-14T11:33:19.289Z,980.24
2017-02-14T11:34:28.865Z,980.23
2017-02-14T11:35:37.702Z,980.29
2017-02-14T11:36:47.668Z,980.24
2017-02-14T11:37:57.620Z,980.32
2017-02-14T11:39:07.576Z,980.32
2017-02-14T11:40:17.534Z,980.28
2017-02-14T11:41:27.121Z,980.27
2017-02-14T11:42:37.081Z,980.28
2017-02-14T11:43:46.614Z,980.27
2017-02-14T11:44:56.980Z,980.26
2017-02-14T11:46:06.512Z,980.26
2017-02-14T11:47:16.093Z,980.25
2017-02-14T11:48:26.048Z,980.26
2017-02-14T11:49:36.041Z,980.25
2017-02-14T11:50:45.577Z,980.21
2017-02-14T11:51:55.150Z,980.23
2017-02-14T11:53:03.966Z,980.2
2017-02-14T11:54:13.923Z,980.2
2017-02-14T11:55:23.491Z,980.23
2017-02-14T11:56:33.064Z,980.19
2017-02-14T11:57:42.616Z,980.16
2017-02-14T11:58:52.563Z,980.16
2017-02-14T12:00:02.515Z,980.17
2017-02-14T12:01:12.415Z,980.13
2017-02-14T12:02:21.991Z,980.17
2017-02-14T12:03:31.976Z,980.14
2017-02-14T12:04:41.954Z,980.16
2017-02-14T12:05:51.515Z,980.15
2017-02-14T12:07:01.074Z,980.2
2017-02-14T12:08:09.863Z,980.23
2017-02-14T12:09:19.427Z,980.2
2017-02-14T12:10:29.004Z,980.21
2017-02-14T12:11:38.579Z,980.2
2017-02-14T12:12:48.537Z,980.14
2017-02-14T12:13:58.136Z,980.14
2017-02-14T12:15:08.099Z,980.16
2017-02-14T12:16:17.318Z,980.18
2017-02-14T12:17:27.296Z,980.15
2017-02-14T12:18:37.229Z,980.16
2017-02-14T12:19:47.129Z,980.16
2017-02-14T12:20:56.694Z,980.21
2017-02-14T12:22:07.031Z,980.14
2017-02-14T12:23:16.989Z,980.12
2017-02-14T12:24:25.734Z,980.1
2017-02-14T12:25:34.921Z,980.17
2017-02-14T12:26:44.509Z,980.14
2017-02-14T12:27:53.677Z,980.14
2017-02-14T12:29:03.584Z,980.1
2017-02-14T12:30:13.165Z,980.11
2017-02-14T12:31:22.742Z,980.1
2017-02-14T12:32:32.327Z,980.06
2017-02-14T12:33:42.288Z,980.05
2017-02-14T12:34:52.294Z,980.03
2017-02-14T12:36:01.852Z,980.02
2017-02-14T12:37:11.372Z,980.04
2017-02-14T12:38:20.938Z,980.06
2017-02-14T12:39:30.509Z,980.02
2017-02-14T12:40:41.194Z,980
2017-02-14T12:41:50.373Z,980
2017-02-14T12:43:00.323Z,980.01
2017-02-14T12:44:09.068Z,980
2017-02-14T12:45:19.014Z,980.01
2017-02-14T12:46:28.570Z,979.94
2017-02-14T12:47:38.540Z,979.98
2017-02-14T12:48:48.126Z,979.97
2017-02-14T12:49:57.706Z,980
2017-02-14T12:51:08.049Z,980.01
2017-02-14T12:52:18.783Z,980
2017-02-14T12:53:28.383Z,980.04
2017-02-14T12:54:37.932Z,980
2017-02-14T12:55:47.472Z,979.97
2017-02-14T12:56:56.657Z,980.01
2017-02-14T12:58:05.872Z,979.98
2017-02-14T12:59:15.047Z,979.96
2017-02-14T13:00:24.577Z,979.93
2017-02-14T13:01:34.145Z,979.96
2017-02-14T13:02:43.721Z,979.94
2017-02-14T13:03:53.299Z,980.01
2017-02-14T13:05:03.258Z,979.99
2017-02-14T13:06:12.446Z,980.01
2017-02-14T13:07:22.030Z,980
2017-02-14T13:08:31.990Z,980.04
2017-02-14T13:09:41.957Z,980
2017-02-14T13:10:51.133Z,980
2017-02-14T13:12:00.297Z,980.03
2017-02-14T13:13:09.839Z,980.05
2017-02-14T13:14:19.022Z,980
2017-02-14T13:15:28.950Z,980.03
2017-02-14T13:16:38.903Z,980.04
2017-02-14T13:17:48.424Z,980.07
2017-02-14T13:18:57.599Z,980.03
2017-02-14T13:20:07.584Z,980.09
2017-02-14T13:21:17.586Z,980.02
2017-02-14T13:22:27.550Z,980.04
2017-02-14T13:23:37.112Z,980.11
2017-02-14T13:24:46.680Z,980.09
2017-02-14T13:25:56.647Z,980.06
2017-02-14T13:27:06.593Z,980.09
2017-02-14T13:28:16.145Z,980.04
2017-02-14T13:29:26.101Z,980.04
2017-02-14T13:30:34.904Z,980.01
2017-02-14T13:31:44.452Z,979.99
2017-02-14T13:32:53.948Z,979.97
2017-02-14T13:34:03.837Z,979.94
2017-02-14T13:35:12.662Z,979.99
2017-02-14T13:36:22.247Z,979.97
2017-02-14T13:37:32.202Z,980.01
2017-02-14T13:38:41.405Z,979.99
2017-02-14T13:39:51.762Z,980
2017-02-14T13:41:01.710Z,980.08
2017-02-14T13:42:12.442Z,980.03
2017-02-14T13:43:22.020Z,980.02
2017-02-14T13:44:31.607Z,980.03
2017-02-14T13:45:41.203Z,980.04
2017-02-14T13:46:51.910Z,980.02
2017-02-14T13:48:01.484Z,980.04
2017-02-14T13:49:11.124Z,980.01
2017-02-14T13:50:20.302Z,980.02
2017-02-14T13:51:29.498Z,980.07
2017-02-14T13:52:39.456Z,980.08
2017-02-14T13:53:49.419Z,980.05
2017-02-14T13:54:59.380Z,980.07
2017-02-14T13:56:08.961Z,980.07
2017-02-14T13:57:18.897Z,980.11
2017-02-14T13:58:28.051Z,980.05
2017-02-14T13:59:37.617Z,980.08
2017-02-14T14:00:47.576Z,980.12
2017-02-14T14:01:57.938Z,980.13
2017-02-14T14:03:08.287Z,980.16
2017-02-14T14:04:18.231Z,980.13
2017-02-14T14:05:28.173Z,980.14
2017-02-14T14:06:37.731Z,980.1
2017-02-14T14:07:47.631Z,980.09
2017-02-14T14:08:57.180Z,980.07
2017-02-14T14:10:06.015Z,980.09
2017-02-14T14:11:15.194Z,980.09
2017-02-14T14:12:24.754Z,980.11
2017-02-14T14:13:33.934Z,980.09
2017-02-14T14:14:43.512Z,980.1
2017-02-14T14:15:53.815Z,980.11
2017-02-14T14:17:03.765Z,980.16
2017-02-14T14:18:14.099Z,980.17
2017-02-14T14:19:23.224Z,980.16
2017-02-14T14:20:32.821Z,980.15
2017-02-14T14:21:42.806Z,980.13
2017-02-14T14:22:52.370Z,980.16
2017-02-14T14:24:01.160Z,980.12
2017-02-14T14:25:10.674Z,980.08
2017-02-14T14:26:20.231Z,980.04
2017-02-14T14:27:29.379Z,980.04
2017-02-14T14:28:38.949Z,980.02
2017-02-14T14:29:49.300Z,980.04
2017-02-14T14:30:58.482Z,980.01
2017-02-14T14:32:07.604Z,980.03
2017-02-14T14:33:17.553Z,980.03
2017-02-14T14:34:27.442Z,980.04
2017-02-14T14:35:37.007Z,980.03
2017-02-14T14:36:46.190Z,980.04
2017-02-14T14:37:55.774Z,980.06
2017-02-14T14:39:05.350Z,980.03
2017-02-14T14:40:15.691Z,980.06
2017-02-14T14:41:25.289Z,980.01
2017-02-14T14:42:34.857Z,980.02
2017-02-14T14:43:44.419Z,980.06